Acazulco, Mexico

7:31 PM CDT on August 16, 2017 (GMT -0500)
Centro San Cristobal Texcalucan | | Change Station

Elev 8727 ft 19.40 °N, 99.33 °W | Updated 15 seconds ago

Mostly Cloudy
Mostly Cloudy
63.2 °F
Feels Like 63.2 °F
N
0.0
Wind Variable Wind from SSW

Today
High -- | Low -- °F
--% Chance of Precip.
Yesterday
High -- | Low -- °F
Precip. -- in
Pressure 29.74 in
Visibility 10.0 miles
Clouds Mostly Cloudy 2000 ft
Mostly Cloudy 8000 ft
Overcast 20000 ft
Dew Point 50 °F
Humidity 63%
Rainfall 0.11 in
Snow Depth Not available.
7:18 AM 8:04 PM
Waning Crescent, 28% visible
METAR MMMX 162354Z 13013KT 10SM BKN020 BKN080 OVC200 23/09 A3027 NOSIG RMK SLP069 52004 914 8/477 CB N SSE SW PCPN NE
Pressure 29.74 in
Visibility 10.0 miles
Clouds Mostly Cloudy 2000 ft
Mostly Cloudy 8000 ft
Overcast 20000 ft
Dew Point 50 °F
Humidity 63%
Rainfall 0.11 in
Snow Depth Not available.
7:18 AM 8:04 PM
Waning Crescent, 28% visible
METAR MMMX 162354Z 13013KT 10SM BKN020 BKN080 OVC200 23/09 A3027 NOSIG RMK SLP069 52004 914 8/477 CB N SSE SW PCPN NE

Get Severe Weather Alerts

Thanks for signing up!

Be on the lookout for a verification email in your inbox.

You'll start receiving the daily forecast at 6 AM.

×

10-Day Weather Forecast

No radar image for this location.
×

Almanac

Astronomy

Aug. 16, 2017 Rise Set
Actual Time
Civil Twilight
Nautical Twilight
Astronomical Twilight
Moon
Length of Visible Light
Length of Day
Tomorrow will be .
, % of the Moon is Illuminated

Today's Extremes

Country Highs Country Lows

Community

WunderPhotos

Category 6

Welcome to Category 6. This is the collective home for Weather Underground's featured writeups by Dr. Jeff Masters (right), Bob Henson (left), Chris Burt, and other regular contributors.

Nearby

Air Quality

  Air Quality AQ Index Pollutant
Not available.

Snow Depth

Station Depth Elevation

Earthquake Activity

City Distance Mag. Time & Date
Minimum magnitude displayed is 2.5.

Coastal Water Temperatures

Place Temperature

Stations

Nearby Weather Stations

Station Location Temp. Windchill Dew Point Humidity Wind Precip. Elev Updated Type